• Join FlightAware (Why Join?)
  • Login
  • US Flag 
04:43PM EST


 

Airport Tracker/Info


-or-


 

Live Flight TrackerFlight Track Log ✈ UCA4838 ✈ 12-Jun-2013 ✈ KROC - KEWR

Flight Track Log - Related Links

Times and Time Zones

All times are in EDT time to prevent confusion due to time zone crossing. See the UCA4838 flight status page for this flight to view local times or setup timezone preferences in your user account.

Time Position Orientation Groundspeed Altitude Reporting Facility
EDT Latitude Longitude Course Direction KTS MPH feet Rate Location/Type
06:07AM 43.1014 -77.6942 157° South 127 146 1,200  Level Cleveland Center
06:08AM 43.0614 -77.6706 157° South 170 196 2,300 1,020 Climbing Cleveland Center
06:09AM 43.0431 -77.6117 113° Southeast 190 219 3,400 1,200 Climbing Cleveland Center
06:10AM 43.0225 -77.5417 112° Southeast 204 235 4,700 1,200 Climbing Cleveland Center
06:11AM 42.9978 -77.4719 116° Southeast 211 243 5,900 1,020 Climbing Cleveland Center
06:12AM 42.9708 -77.3994 117° Southeast 211 243 6,800 900 Climbing Cleveland Center
06:13AM 42.9394 -77.3189 118° Southeast 222 255 7,700 780 Climbing Cleveland Center
06:15AM 42.9006 -77.1994 114° Southeast 252 290 8,900 720 Climbing New York Center
06:16AM 42.8658 -77.1111 118° Southeast 252 290 9,700 780 Climbing New York Center
06:17AM 42.8353 -77.0178 114° Southeast 252 290 10,500 840 Climbing New York Center
06:18AM 42.7983 -76.9294 120° Southeast 257 296 11,400 780 Climbing New York Center
06:19AM 42.7572 -76.8408 122° Southeast 269 310 12,100 600 Climbing New York Center
06:20AM 42.7158 -76.7522 122° Southeast 275 316 12,700 420 Climbing New York Center
06:21AM 42.6747 -76.6553 120° Southeast 281 323 13,000 120 Climbing New York Center
06:22AM 42.6297 -76.5583 122° Southeast 292 336 13,000  Level New York Center
06:23AM 42.5847 -76.4531 120° Southeast 307 353 13,000  Level New York Center
06:23AM 42.5567 -76.3950 123° Southeast 328 377 13,000  Level Boston Center
06:24AM 42.5181 -76.3081 121° Southeast 316 364 13,000  Level Boston Center
06:25AM 42.4772 -76.2183 122° Southeast 316 364 13,000  Level Boston Center
06:26AM 42.4344 -76.1200 120° Southeast 310 357 13,000  Level Boston Center
06:27AM 42.3858 -76.0158 122° Southeast 321 369 13,000  Level Boston Center
06:28AM 42.3389 -75.9122 121° Southeast 314 361 13,000  Level Boston Center
06:29AM 42.2919 -75.8083 121° Southeast 319 367 13,000  Level Boston Center
06:30AM 42.2450 -75.7106 123° Southeast 319 367 13,000  Level Boston Center
06:31AM 42.1997 -75.6100 121° Southeast 319 367 13,000  Level Boston Center
06:32AM 42.1525 -75.5067 122° Southeast 319 367 13,000  Level Boston Center
06:33AM 42.1053 -75.4064 122° Southeast 319 367 13,000  Level Boston Center
06:34AM 42.0578 -75.3036 122° Southeast 314 361 13,100  Climbing Boston Center
06:35AM 42.0189 -75.1983 116° Southeast 314 361 13,100  Level Boston Center
06:36AM 41.9756 -75.0847 117° Southeast 319 367 13,100  Level Boston Center
06:37AM 41.9383 -74.9856 117° Southeast 319 367 13,100 -300 Level Boston Center
06:38AM 41.8758 -74.8908 132° Southeast 313 360 12,600 -1,020 Descending Boston Center
06:39AM 41.7975 -74.8461 157° South 318 366 11,100 -1,620 Descending Boston Center
06:40AM 41.7072 -74.7842 153° Southeast 329 379 9,400 -1,500 Descending Boston Center
06:41AM 41.6350 -74.7372 154° Southeast 329 379 8,200 -1,200 Descending Boston Center
06:42AM 41.5439 -74.7061 166° South 312 359 7,000 -1,080 Descending Boston Center
06:43AM 41.4736 -74.6869 168° South 302 348 6,100 -420 Descending Boston Center
06:45AM 41.3333 -74.6500 169° South 293 337 6,000  Descending New York TRACON
06:46AM 41.2667 -74.6500 180° South 278 320 6,100  Climbing New York TRACON
06:47AM 41.1833 -74.6333 171° South 295 339 6,000 -540 Descending New York TRACON
06:48AM 41.1167 -74.5833 151° Southeast 295 339 5,100 -480 Descending New York TRACON
06:49AM 41.0333 -74.5333 156° South 286 329 5,100  Level New York TRACON
06:49AM 40.9833 -74.4833 143° Southeast 282 325 5,100  Level New York TRACON
06:50AM 40.9000 -74.4500 163° South 289 333 5,100 -60 Level New York TRACON
06:51AM 40.8500 -74.4833 207° Southwest 248 285 5,000  Descending New York TRACON
06:52AM 40.7833 -74.5167 201° Southwest 266 306 5,100  Climbing New York TRACON
06:53AM 40.7167 -74.5000 169° South 278 320 5,100 -60 Level New York TRACON
06:54AM 40.6500 -74.4833 169° South 281 323 5,000  Descending New York TRACON
06:55AM 40.5833 -74.4833 180° South 279 321 5,100 -480 Climbing New York TRACON
06:56AM 40.5000 -74.4667 171° South 290 334 4,100 -1,020 Descending New York TRACON
06:57AM 40.4167 -74.4500 171° South 286 329 3,100 -540 Descending New York TRACON
06:58AM 40.4000 -74.3667 105° East 257 296 3,100 -60 Level New York TRACON
06:59AM 40.4500 -74.3167 37° Northeast 211 243 3,000 -60 Descending New York TRACON
07:00AM 40.5000 -74.2833 27° Northeast 202 232 3,000 -60 Level New York TRACON
07:01AM 40.5500 -74.2500 27° Northeast 177 204 2,900 -540 Descending New York TRACON
07:02AM 40.5833 -74.2333 21° North 162 186 2,000 -900 Descending New York TRACON